createdAt,value
2022-10-19T00:01:22.559Z,14.80
2022-10-19T00:04:08.982Z,14.80
2022-10-19T00:06:54.529Z,14.80
2022-10-19T00:09:40.264Z,14.70
2022-10-19T00:12:26.224Z,14.70
2022-10-19T00:15:11.780Z,14.60
2022-10-19T00:17:57.335Z,14.60
2022-10-19T00:20:42.942Z,14.60
2022-10-19T00:23:28.400Z,14.60
2022-10-19T00:26:14.399Z,14.50
2022-10-19T00:28:59.802Z,14.60
2022-10-19T00:31:45.270Z,14.50
2022-10-19T00:34:30.925Z,14.50
2022-10-19T00:37:16.521Z,14.40
2022-10-19T00:40:02.388Z,14.40
2022-10-19T00:42:53.673Z,14.40
2022-10-19T00:45:40.196Z,14.40
2022-10-19T00:48:29.727Z,14.40
2022-10-19T00:51:15.548Z,14.40
2022-10-19T00:54:03.329Z,14.50
2022-10-19T00:56:51.852Z,14.40
2022-10-19T00:59:39.794Z,14.30
2022-10-19T01:02:25.368Z,14.30
2022-10-19T01:05:12.184Z,14.20
2022-10-19T01:07:58.148Z,14.30
2022-10-19T01:10:43.901Z,14.20
2022-10-19T01:14:09.760Z,15.30
2022-10-19T01:17:29.783Z,14.20
2022-10-19T01:20:52.585Z,14.20
2022-10-19T01:23:47.303Z,14.10
2022-10-19T01:27:11.640Z,14.10
2022-10-19T01:30:05.554Z,14.00
2022-10-19T01:32:57.004Z,14.00
2022-10-19T01:35:57.184Z,14.10
2022-10-19T01:38:56.491Z,14.00
2022-10-19T01:41:56.019Z,14.10
2022-10-19T01:44:55.453Z,14.00
2022-10-19T01:47:59.669Z,14.00
2022-10-19T01:50:51.624Z,13.90
2022-10-19T01:53:44.540Z,14.00
2022-10-19T01:56:32.313Z,13.90
2022-10-19T01:59:21.075Z,13.90
2022-10-19T02:02:10.481Z,13.90
2022-10-19T02:04:57.678Z,12.30
2022-10-19T02:07:49.589Z,13.80
2022-10-19T02:10:37.569Z,13.80
2022-10-19T02:13:24.650Z,13.80
2022-10-19T02:16:16.325Z,13.80
2022-10-19T02:19:03.073Z,13.70
2022-10-19T02:21:49.105Z,13.70
2022-10-19T02:24:34.812Z,13.70
2022-10-19T02:27:20.711Z,13.60
2022-10-19T02:30:07.030Z,13.50
2022-10-19T02:32:52.852Z,13.60
2022-10-19T02:35:39.049Z,13.50
2022-10-19T02:38:24.943Z,13.50
2022-10-19T02:41:24.354Z,13.40
2022-10-19T02:44:19.344Z,13.50
2022-10-19T02:47:15.666Z,13.50
2022-10-19T02:50:04.913Z,13.40
2022-10-19T02:52:50.461Z,13.50
2022-10-19T02:55:36.029Z,13.40
2022-10-19T02:58:21.499Z,13.30
2022-10-19T03:01:06.947Z,13.30
2022-10-19T03:03:52.433Z,13.30
2022-10-19T03:06:38.208Z,13.30
2022-10-19T03:09:23.665Z,13.30
2022-10-19T03:12:10.438Z,13.30
2022-10-19T03:14:56.212Z,13.30
2022-10-19T03:17:41.715Z,13.20
2022-10-19T03:20:27.245Z,13.10
2022-10-19T03:23:12.765Z,13.10
2022-10-19T03:25:58.416Z,13.10
2022-10-19T03:28:44.236Z,12.90
2022-10-19T03:31:29.631Z,12.90
2022-10-19T03:34:15.197Z,12.80
2022-10-19T03:37:00.764Z,12.80
2022-10-19T03:39:46.313Z,12.90
2022-10-19T03:42:31.819Z,12.80
2022-10-19T03:45:17.246Z,12.80
2022-10-19T03:48:02.775Z,12.80
2022-10-19T03:50:48.389Z,12.80
2022-10-19T03:53:34.436Z,12.90
2022-10-19T03:56:22.813Z,12.90
2022-10-19T03:59:12.011Z,12.90
2022-10-19T04:01:57.386Z,12.90
2022-10-19T04:04:42.868Z,12.90
2022-10-19T04:07:28.268Z,12.90
2022-10-19T04:10:13.765Z,12.90
2022-10-19T04:12:59.148Z,12.90
2022-10-19T04:15:44.632Z,12.90
2022-10-19T04:18:30.188Z,12.90
2022-10-19T04:21:30.565Z,12.80
2022-10-19T04:24:18.479Z,12.80
2022-10-19T04:27:04.082Z,12.90
2022-10-19T04:29:49.444Z,12.90
2022-10-19T04:32:35.192Z,12.80
2022-10-19T04:35:20.568Z,12.80
2022-10-19T04:38:06.049Z,12.80
2022-10-19T04:40:55.984Z,12.90
2022-10-19T04:43:42.116Z,12.90
2022-10-19T04:46:29.300Z,12.90
2022-10-19T04:49:17.819Z,12.90
2022-10-19T04:52:06.092Z,12.90
2022-10-19T04:54:51.621Z,12.90
2022-10-19T04:57:37.267Z,12.90
2022-10-19T05:00:22.759Z,12.90
2022-10-19T05:03:08.264Z,12.90
2022-10-19T05:05:54.072Z,12.90
2022-10-19T05:08:40.214Z,12.90
2022-10-19T05:11:26.934Z,13.00
2022-10-19T05:14:12.905Z,13.00
2022-10-19T05:16:58.396Z,13.00
2022-10-19T05:19:43.940Z,13.00
2022-10-19T05:22:29.489Z,13.10
2022-10-19T05:25:15.087Z,13.00
2022-10-19T05:28:00.924Z,13.00
2022-10-19T05:30:48.933Z,12.90
2022-10-19T05:33:34.860Z,12.90
2022-10-19T05:36:26.152Z,12.80
2022-10-19T05:39:18.560Z,12.80
2022-10-19T05:42:04.729Z,12.80
2022-10-19T05:44:50.311Z,12.80
2022-10-19T05:47:36.209Z,12.70
2022-10-19T05:50:21.646Z,12.80
2022-10-19T05:53:07.190Z,12.70
2022-10-19T05:55:52.820Z,12.80
2022-10-19T05:58:38.235Z,12.80
2022-10-19T06:01:23.849Z,12.80
2022-10-19T06:04:10.882Z,12.80
2022-10-19T06:06:56.401Z,12.90
2022-10-19T06:09:41.948Z,12.90
2022-10-19T06:12:27.595Z,12.90
2022-10-19T06:15:13.629Z,12.90
2022-10-19T06:17:59.072Z,12.90
2022-10-19T06:20:44.600Z,13.00
2022-10-19T06:23:31.349Z,13.00
2022-10-19T06:26:16.781Z,13.00
2022-10-19T06:29:03.643Z,12.90
2022-10-19T06:31:49.481Z,13.00
2022-10-19T06:34:35.031Z,13.00
2022-10-19T06:37:20.653Z,13.10
2022-10-19T06:40:07.354Z,13.10
2022-10-19T06:42:55.806Z,13.10
2022-10-19T06:45:41.335Z,13.10
2022-10-19T06:48:26.736Z,13.10
2022-10-19T06:51:13.623Z,13.10
2022-10-19T06:53:59.177Z,13.10
2022-10-19T06:56:44.562Z,13.10
2022-10-19T06:59:30.204Z,13.10
2022-10-19T07:02:15.673Z,13.20
2022-10-19T07:05:06.066Z,13.10
2022-10-19T07:07:52.707Z,13.20
2022-10-19T07:10:38.626Z,13.20
2022-10-19T07:13:25.877Z,13.30
2022-10-19T07:16:17.617Z,13.30
2022-10-19T07:19:06.664Z,13.30
2022-10-19T07:21:53.145Z,13.30
2022-10-19T07:24:38.818Z,13.30
2022-10-19T07:27:24.442Z,13.40
2022-10-19T07:30:10.233Z,12.60
2022-10-19T07:32:55.960Z,13.40
2022-10-19T07:35:41.653Z,13.50
2022-10-19T07:38:27.364Z,13.40
2022-10-19T07:41:15.688Z,13.50
2022-10-19T07:44:02.067Z,13.50
2022-10-19T07:46:47.873Z,13.60
2022-10-19T07:49:33.171Z,13.70
2022-10-19T07:52:18.990Z,13.70
2022-10-19T07:55:04.549Z,15.40
2022-10-19T07:57:50.517Z,13.70
2022-10-19T08:00:36.228Z,13.70
2022-10-19T08:06:28.080Z,13.80
2022-10-19T08:09:33.456Z,13.90
2022-10-19T08:12:20.016Z,13.90
2022-10-19T08:15:07.170Z,13.90
2022-10-19T08:17:52.884Z,14.00
2022-10-19T08:20:41.669Z,14.10
2022-10-19T08:23:27.507Z,14.20
2022-10-19T08:26:13.389Z,14.30
2022-10-19T08:29:03.204Z,14.40
2022-10-19T08:31:50.283Z,14.40
2022-10-19T08:34:35.733Z,14.50
2022-10-19T08:37:40.098Z,14.60
2022-10-19T08:40:29.531Z,14.60
2022-10-19T08:43:35.041Z,14.70
2022-10-19T08:46:50.370Z,14.80
2022-10-19T08:49:36.615Z,14.90
2022-10-19T08:52:33.434Z,14.90
2022-10-19T08:55:28.081Z,15.10
2022-10-19T08:58:35.938Z,15.10
2022-10-19T09:01:42.036Z,15.20
2022-10-19T09:04:38.528Z,15.30
2022-10-19T09:07:34.781Z,15.30
2022-10-19T09:10:35.953Z,15.40
2022-10-19T09:13:21.564Z,15.50
2022-10-19T09:16:11.785Z,15.60
2022-10-19T09:18:57.344Z,15.70
2022-10-19T09:21:55.595Z,15.70
2022-10-19T09:24:50.507Z,15.70
2022-10-19T09:27:39.630Z,15.80
2022-10-19T09:30:25.080Z,15.90
2022-10-19T09:33:17.613Z,16.00
2022-10-19T09:36:05.789Z,16.00
2022-10-19T09:38:51.832Z,16.00
2022-10-19T09:41:43.928Z,16.00
2022-10-19T09:44:30.941Z,16.00
2022-10-19T09:47:34.472Z,16.10
2022-10-19T09:50:25.207Z,16.10
2022-10-19T09:53:20.206Z,16.10
2022-10-19T09:56:18.955Z,16.10
2022-10-19T09:59:23.200Z,16.10
2022-10-19T10:02:19.669Z,16.10
2022-10-19T10:05:13.965Z,16.10
2022-10-19T10:07:59.751Z,16.10
2022-10-19T10:10:47.923Z,16.10
2022-10-19T10:16:41.370Z,16.10
2022-10-19T10:19:28.845Z,16.10
2022-10-19T10:22:35.664Z,16.10
2022-10-19T10:25:21.352Z,16.20
2022-10-19T10:28:28.414Z,16.20
2022-10-19T10:31:14.669Z,16.20
2022-10-19T10:34:10.967Z,16.30
2022-10-19T10:37:30.595Z,16.30
2022-10-19T10:40:28.584Z,16.30
2022-10-19T10:43:17.199Z,16.30
2022-10-19T10:46:14.841Z,16.30
2022-10-19T10:49:05.509Z,16.30
2022-10-19T10:51:57.753Z,16.30
2022-10-19T10:55:17.512Z,16.30
2022-10-19T10:58:25.503Z,16.30
2022-10-19T11:01:28.469Z,16.40
2022-10-19T11:04:22.579Z,16.40
2022-10-19T11:07:24.539Z,16.40
2022-10-19T11:10:30.928Z,16.40
2022-10-19T11:13:18.380Z,16.50
2022-10-19T11:16:28.886Z,16.50
2022-10-19T11:19:29.548Z,16.50
2022-10-19T11:22:18.489Z,16.50
2022-10-19T11:25:35.587Z,16.50
2022-10-19T11:28:31.104Z,16.50
2022-10-19T11:31:29.753Z,16.50
2022-10-19T11:34:37.353Z,16.50
2022-10-19T11:37:33.662Z,16.60
2022-10-19T11:40:36.761Z,16.70
2022-10-19T11:43:32.795Z,16.70
2022-10-19T11:46:30.561Z,16.70
2022-10-19T11:49:43.052Z,16.70
2022-10-19T11:52:41.144Z,16.70
2022-10-19T11:55:32.871Z,16.70
2022-10-19T11:58:34.462Z,16.80
2022-10-19T12:01:35.603Z,16.80
2022-10-19T12:04:42.942Z,16.90
2022-10-19T12:07:37.121Z,16.80
2022-10-19T12:10:32.997Z,16.90
2022-10-19T12:13:27.356Z,16.90
2022-10-19T12:16:14.427Z,17.00
2022-10-19T12:19:03.051Z,17.10
2022-10-19T12:21:50.684Z,17.30
2022-10-19T12:24:36.329Z,17.50
2022-10-19T12:27:36.189Z,17.70
2022-10-19T12:30:23.937Z,17.90
2022-10-19T12:33:26.723Z,18.10
2022-10-19T12:36:27.485Z,18.30
2022-10-19T12:39:33.484Z,18.40
2022-10-19T12:42:31.783Z,18.60
2022-10-19T12:45:22.553Z,18.70
2022-10-19T12:48:08.368Z,18.80
2022-10-19T12:50:53.967Z,18.80
2022-10-19T12:53:41.264Z,18.90
2022-10-19T12:56:27.480Z,18.90
2022-10-19T12:59:24.391Z,18.90
2022-10-19T13:02:27.172Z,19.00
2022-10-19T13:05:33.583Z,19.20
2022-10-19T13:08:35.459Z,19.50
2022-10-19T13:11:22.449Z,19.70
2022-10-19T13:14:20.242Z,19.80
2022-10-19T13:17:07.657Z,20.10
2022-10-19T13:20:13.381Z,20.20
2022-10-19T13:23:04.593Z,20.40
2022-10-19T13:26:28.868Z,20.50
2022-10-19T13:29:39.317Z,20.60
2022-10-19T13:32:44.828Z,20.70
2022-10-19T13:35:35.176Z,20.90
2022-10-19T13:38:26.575Z,20.90
2022-10-19T13:41:18.657Z,21.00
2022-10-19T13:44:14.407Z,21.10
2022-10-19T13:47:00.158Z,21.20
2022-10-19T13:50:06.253Z,21.40
2022-10-19T13:53:01.965Z,21.50
2022-10-19T13:56:27.141Z,21.70
2022-10-19T13:59:32.595Z,21.70
2022-10-19T14:02:58.832Z,21.80
2022-10-19T14:06:02.585Z,21.80
2022-10-19T14:09:19.679Z,21.90
2022-10-19T14:12:17.551Z,21.80
2022-10-19T14:15:22.977Z,21.70
2022-10-19T14:18:24.939Z,21.70
2022-10-19T14:21:10.716Z,21.70
2022-10-19T14:23:56.329Z,21.70
2022-10-19T14:26:42.014Z,21.70
2022-10-19T14:29:27.701Z,21.70
2022-10-19T14:32:13.712Z,21.70
2022-10-19T14:37:55.768Z,21.70
2022-10-19T14:40:42.083Z,21.70
2022-10-19T14:43:30.491Z,21.70
2022-10-19T14:46:16.497Z,21.70
2022-10-19T14:49:05.260Z,21.80
2022-10-19T14:52:02.261Z,21.80
2022-10-19T14:54:51.072Z,21.80
2022-10-19T14:57:39.908Z,21.80
2022-10-19T15:03:28.768Z,21.90
2022-10-19T15:06:29.578Z,21.90
2022-10-19T15:09:37.111Z,21.90
2022-10-19T15:12:38.422Z,21.90
2022-10-19T15:15:31.100Z,21.90
2022-10-19T15:18:43.582Z,21.90
2022-10-19T15:21:23.208Z,21.80
2022-10-19T15:24:23.216Z,21.70
2022-10-19T15:27:20.689Z,21.70
2022-10-19T15:30:18.294Z,21.60
2022-10-19T15:33:04.396Z,21.50
2022-10-19T15:35:50.062Z,21.40
2022-10-19T15:38:36.130Z,21.40
2022-10-19T15:41:37.708Z,21.40
2022-10-19T15:44:53.209Z,21.30
2022-10-19T15:47:47.220Z,21.20
2022-10-19T15:50:38.689Z,21.10
2022-10-19T15:53:25.485Z,21.00
2022-10-19T15:56:13.563Z,21.00
2022-10-19T15:59:04.445Z,21.00
2022-10-19T16:01:52.563Z,20.90
2022-10-19T16:04:39.199Z,20.90
2022-10-19T16:07:27.856Z,20.70
2022-10-19T16:10:19.038Z,20.60
2022-10-19T16:13:05.027Z,20.50
2022-10-19T16:16:01.328Z,20.40
2022-10-19T16:18:56.688Z,20.20
2022-10-19T16:21:45.638Z,20.00
2022-10-19T16:24:33.487Z,19.90
2022-10-19T16:27:19.009Z,19.70
2022-10-19T16:30:05.833Z,19.60
2022-10-19T16:32:51.353Z,19.50
2022-10-19T16:35:39.966Z,19.40
2022-10-19T16:38:25.297Z,19.20
2022-10-19T16:41:10.926Z,19.20
2022-10-19T16:43:57.268Z,19.00
2022-10-19T16:46:43.057Z,18.80
2022-10-19T16:49:28.515Z,18.70
2022-10-19T16:52:14.616Z,18.70
2022-10-19T16:55:00.768Z,18.60
2022-10-19T16:57:46.480Z,18.50
2022-10-19T17:00:32.560Z,18.40
2022-10-19T17:03:18.016Z,18.30
2022-10-19T17:06:04.904Z,18.20
2022-10-19T17:11:56.959Z,17.90
2022-10-19T17:14:42.902Z,17.90
2022-10-19T17:17:28.601Z,17.80
2022-10-19T17:20:15.760Z,17.80
2022-10-19T17:23:01.300Z,17.70
2022-10-19T17:25:48.446Z,17.60
2022-10-19T17:28:34.372Z,17.50
2022-10-19T17:31:19.840Z,17.40
2022-10-19T17:34:06.312Z,17.30
2022-10-19T17:36:51.772Z,17.30
2022-10-19T17:39:37.199Z,17.20
2022-10-19T17:42:22.815Z,17.10
2022-10-19T17:45:08.784Z,17.10
2022-10-19T17:47:56.132Z,17.00
2022-10-19T17:50:41.674Z,17.00
2022-10-19T17:53:27.867Z,17.00
2022-10-19T17:56:16.081Z,16.80
2022-10-19T17:59:04.819Z,16.60
2022-10-19T18:01:50.472Z,16.60
2022-10-19T18:07:26.246Z,16.30
2022-10-19T18:10:11.827Z,16.20
2022-10-19T18:12:57.591Z,16.10
2022-10-19T18:15:43.049Z,16.10
2022-10-19T18:18:30.433Z,16.10
2022-10-19T18:21:19.521Z,16.10
2022-10-19T18:24:07.462Z,16.00
2022-10-19T18:26:54.589Z,16.00
2022-10-19T18:29:39.937Z,15.90
2022-10-19T18:32:25.530Z,15.80
2022-10-19T18:35:11.916Z,15.90
2022-10-19T18:37:57.473Z,15.80
2022-10-19T18:40:43.128Z,15.70
2022-10-19T18:43:28.715Z,15.70
2022-10-19T18:46:14.593Z,16.40
2022-10-19T18:49:01.233Z,15.40
2022-10-19T18:51:50.789Z,15.50
2022-10-19T18:54:39.756Z,15.40
2022-10-19T18:57:29.495Z,15.30
2022-10-19T19:00:17.561Z,15.20
2022-10-19T19:03:03.495Z,15.20
2022-10-19T19:05:49.194Z,15.10
2022-10-19T19:08:35.320Z,15.00
2022-10-19T19:11:24.224Z,15.00
2022-10-19T19:14:22.909Z,14.90
2022-10-19T19:17:08.366Z,14.90
2022-10-19T19:19:53.804Z,14.80
2022-10-19T19:22:39.420Z,14.80
2022-10-19T19:25:25.037Z,14.80
2022-10-19T19:28:10.648Z,15.00
2022-10-19T19:30:56.013Z,14.80
2022-10-19T19:33:42.096Z,14.70
2022-10-19T19:36:28.368Z,14.70
2022-10-19T19:39:15.516Z,14.70
2022-10-19T19:42:01.134Z,14.70
2022-10-19T19:44:46.891Z,14.60
2022-10-19T19:47:32.486Z,14.50
2022-10-19T19:50:18.257Z,14.50
2022-10-19T19:53:04.463Z,14.50
2022-10-19T19:55:50.385Z,14.60
2022-10-19T19:58:36.236Z,14.50
2022-10-19T20:01:22.403Z,14.40
2022-10-19T20:04:09.234Z,14.40
2022-10-19T20:06:55.013Z,14.30
2022-10-19T20:09:40.460Z,14.30
2022-10-19T20:12:26.248Z,14.10
2022-10-19T20:15:13.883Z,14.10
2022-10-19T20:17:59.276Z,14.00
2022-10-19T20:20:44.884Z,14.00
2022-10-19T20:23:31.050Z,14.00
2022-10-19T20:26:22.170Z,14.00
2022-10-19T20:29:07.876Z,13.20
2022-10-19T20:31:53.246Z,14.00
2022-10-19T20:34:38.740Z,14.00
2022-10-19T20:37:25.692Z,13.90
2022-10-19T20:40:11.510Z,13.90
2022-10-19T20:42:56.968Z,13.90
2022-10-19T20:45:42.472Z,13.90
2022-10-19T20:48:27.976Z,13.90
2022-10-19T20:51:15.625Z,13.80
2022-10-19T20:54:03.427Z,13.80
2022-10-19T20:56:49.176Z,13.70
2022-10-19T20:59:34.958Z,13.70
2022-10-19T21:02:20.316Z,13.70
2022-10-19T21:05:06.304Z,13.60
2022-10-19T21:07:53.207Z,13.60
2022-10-19T21:10:38.879Z,13.60
2022-10-19T21:13:24.456Z,13.50
2022-10-19T21:16:14.100Z,13.50
2022-10-19T21:19:00.828Z,13.40
2022-10-19T21:21:49.437Z,13.40
2022-10-19T21:24:36.610Z,13.40
2022-10-19T21:27:22.365Z,13.40
2022-10-19T21:30:08.263Z,13.30
2022-10-19T21:32:54.144Z,13.30
2022-10-19T21:35:39.868Z,13.20
2022-10-19T21:38:25.369Z,13.20
2022-10-19T21:41:16.398Z,13.20
2022-10-19T21:44:01.897Z,13.30
2022-10-19T21:46:48.208Z,13.10
2022-10-19T21:49:33.706Z,13.20
2022-10-19T21:52:19.131Z,13.10
2022-10-19T21:55:04.986Z,13.10
2022-10-19T21:57:50.895Z,13.00
2022-10-19T22:00:37.198Z,13.00
2022-10-19T22:03:22.853Z,13.00
2022-10-19T22:06:08.194Z,13.00
2022-10-19T22:08:53.945Z,13.00
2022-10-19T22:11:39.384Z,13.00
2022-10-19T22:14:24.888Z,12.90
2022-10-19T22:17:10.353Z,13.00
2022-10-19T22:19:55.798Z,12.90
2022-10-19T22:22:41.279Z,12.90
2022-10-19T22:25:26.663Z,12.80
2022-10-19T22:28:12.104Z,12.80
2022-10-19T22:30:59.126Z,12.80
2022-10-19T22:33:44.657Z,12.80
2022-10-19T22:36:30.282Z,12.80
2022-10-19T22:39:16.912Z,12.80
2022-10-19T22:42:02.328Z,12.80
2022-10-19T22:44:47.807Z,12.70
2022-10-19T22:47:33.330Z,12.70
2022-10-19T22:50:18.833Z,12.70
2022-10-19T22:53:04.474Z,12.60
2022-10-19T22:55:51.645Z,12.60
2022-10-19T22:58:37.048Z,12.60
2022-10-19T23:01:22.457Z,12.50
2022-10-19T23:04:07.848Z,12.50
2022-10-19T23:06:53.503Z,12.40
2022-10-19T23:09:39.279Z,12.50
2022-10-19T23:12:24.967Z,12.50
2022-10-19T23:15:10.739Z,12.50
2022-10-19T23:17:56.163Z,12.50
2022-10-19T23:20:41.705Z,12.40
2022-10-19T23:23:28.240Z,12.40
2022-10-19T23:26:16.556Z,12.40
2022-10-19T23:29:02.095Z,12.40
2022-10-19T23:31:48.299Z,12.40
2022-10-19T23:37:20.619Z,12.30
2022-10-19T23:40:06.570Z,12.30
2022-10-19T23:42:52.175Z,12.20
2022-10-19T23:45:39.424Z,12.10
2022-10-19T23:48:24.963Z,12.10
2022-10-19T23:51:15.969Z,12.10
2022-10-19T23:54:01.389Z,12.10
2022-10-19T23:56:46.850Z,12.10
2022-10-19T23:59:32.849Z,12.10
